Time;durP1;ratioP1;P1;durP2;ratioP2;P2;SDS_P1;SDS_P2;PMS_P1;PMS_P2;Temp;Humidity;BMP_temperature;BMP_pressure;BME280_temperature;BME280_humidity;BME280_pressure;Samples;Min_cycle;Max_cycle;Signal;HPM_P1;HPM_P2
2022/09/05 00:01:40;;;;;;;8.43;6.70;;;;;;;-141.28;100.00;49282.25;5074607;28;20608;-75
2022/09/05 00:04:13;;;;;;;9.40;7.03;;;;;;;-141.28;100.00;49199.84;5075202;28;20204;-76
2022/09/05 00:06:47;;;;;;;7.40;6.10;;;;;;;-141.28;100.00;49146.84;5088977;28;20195;-75
2022/09/05 00:09:21;;;;;;;8.50;6.70;;;;;;;-141.28;100.00;49160.59;5105362;28;20207;-76
2022/09/05 00:11:57;;;;;;;7.73;6.93;;;;;;;-141.28;100.00;49176.28;5094275;28;20661;-74
2022/09/05 00:14:39;;;;;;;6.83;6.13;;;;;;;-141.28;100.00;49199.84;5100682;28;20199;-76
2022/09/05 00:17:17;;;;;;;9.00;6.63;;;;;;;-141.28;100.00;49219.47;5098533;28;20207;-75
2022/09/05 00:19:50;;;;;;;7.23;6.40;;;;;;;-141.28;100.00;49225.34;5094160;28;20231;-77
2022/09/05 00:22:36;;;;;;;7.30;6.40;;;;;;;-141.28;100.00;49270.47;5111693;28;20195;-76
2022/09/05 00:25:26;;;;;;;8.23;6.60;;;;;;;-141.28;100.00;49303.84;5105258;28;20563;-75
2022/09/05 00:28:02;;;;;;;7.53;6.80;;;;;;;-141.28;100.00;49333.25;5093929;28;20200;-75
2022/09/05 00:30:39;;;;;;;8.40;6.80;;;;;;;-141.28;100.00;49266.56;5082432;28;20223;-76
2022/09/05 00:33:22;;;;;;;7.50;6.30;;;;;;;-141.28;100.00;49317.56;5105116;28;20195;-76
2022/09/05 00:36:01;;;;;;;7.83;6.53;;;;;;;-141.28;100.00;49301.88;5097735;28;20566;-77
2022/09/05 00:38:30;;;;;;;8.47;6.60;;;;;;;-141.28;100.00;49286.16;5087824;28;20203;-75
2022/09/05 00:41:01;;;;;;;8.50;6.73;;;;;;;-141.28;100.00;49243.00;5079699;28;20227;-75
2022/09/05 00:43:32;;;;;;;7.30;6.53;;;;;;;-141.28;100.00;49266.56;5093618;28;20191;-75
2022/09/05 00:46:02;;;;;;;8.03;6.70;;;;;;;-141.28;100.00;49321.50;5105607;28;20545;-75
2022/09/05 00:48:37;;;;;;;7.23;6.53;;;;;;;-141.28;100.00;49274.41;5090378;28;20206;-75
2022/09/05 00:51:15;;;;;;;15.20;7.13;;;;;;;-141.28;100.00;49309.72;5093831;28;20713;-76
2022/09/05 00:53:56;;;;;;;7.53;6.67;;;;;;;-141.28;100.00;49309.72;5073558;28;20192;-75
2022/09/05 00:56:41;;;;;;;9.97;6.70;;;;;;;-141.28;100.00;49348.97;5073777;28;20275;-78
2022/09/05 00:59:52;;;;;;;8.50;7.00;;;;;;;-141.28;100.00;49399.97;5076641;28;20625;-75
2022/09/05 01:02:35;;;;;;;8.43;6.43;;;;;;;-141.28;100.00;49462.78;5076278;28;20210;-76
2022/09/05 01:05:10;;;;;;;7.20;6.40;;;;;;;-141.28;100.00;49329.34;5073865;28;20207;-75
2022/09/05 01:07:51;;;;;;;6.53;5.83;;;;;;;-141.28;100.00;49341.13;5080463;28;20199;-76
2022/09/05 01:10:26;;;;;;;6.73;5.77;;;;;;;-141.28;100.00;49309.72;5081402;28;20626;-75
2022/09/05 01:13:09;;;;;;;7.60;6.03;;;;;;;-141.28;100.00;49290.09;5086006;28;20195;-75
2022/09/05 01:15:47;;;;;;;7.83;5.70;;;;;;;-141.28;100.00;49317.56;5075140;28;20200;-75
2022/09/05 01:18:27;;;;;;;6.37;5.33;;;;;;;-141.28;100.00;49327.38;5091559;28;20192;-76
2022/09/05 01:21:17;;;;;;;6.30;5.70;;;;;;;-141.28;100.00;49356.81;5082964;28;20218;-76
2022/09/05 01:24:02;;;;;;;7.80;5.70;;;;;;;-141.28;100.00;49407.84;5076911;28;20198;-75
2022/09/05 01:26:47;;;;;;;8.30;6.87;;;;;;;-141.28;100.00;49451.00;5100991;28;20681;-76
2022/09/05 01:29:24;;;;;;;9.77;7.30;;;;;;;-141.28;100.00;49411.75;5062652;28;20214;-77
2022/09/05 01:32:08;;;;;;;9.03;7.30;;;;;;;-141.28;100.00;49421.56;5092617;28;20191;-75
2022/09/05 01:34:54;;;;;;;8.83;7.43;;;;;;;-141.28;100.00;49462.78;5092552;28;20622;-77
2022/09/05 01:37:28;;;;;;;14.37;10.50;;;;;;;-141.28;100.00;49435.31;5080141;28;20194;-76
2022/09/05 01:40:07;;;;;;;10.97;8.57;;;;;;;-141.28;100.00;49376.44;5112826;28;20233;-75
2022/09/05 01:42:43;;;;;;;13.50;8.37;;;;;;;-141.28;100.00;49374.47;5084243;28;20219;-74
2022/09/05 01:45:20;;;;;;;9.60;6.47;;;;;;;-141.28;100.00;49388.22;5078753;28;20199;-75
2022/09/05 01:47:58;;;;;;;7.00;5.47;;;;;;;-141.28;100.00;49376.44;5092155;28;20197;-75
2022/09/05 01:50:36;;;;;;;9.20;6.53;;;;;;;-141.28;100.00;49388.22;5084851;28;20200;-75
2022/09/05 01:53:24;;;;;;;16.20;8.77;;;;;;;-141.28;100.00;49372.50;5097415;28;20665;-75
2022/09/05 01:56:05;;;;;;;16.00;9.47;;;;;;;-141.28;100.00;49341.13;5109839;28;20213;-76
2022/09/05 01:58:51;;;;;;;20.20;11.93;;;;;;;-141.28;100.00;49441.19;5092375;28;20196;-76
2022/09/05 02:01:29;;;;;;;19.33;12.10;;;;;;;-141.28;100.00;49399.97;5085422;28;20239;-76
2022/09/05 02:04:22;;;;;;;18.10;10.00;;;;;;;-141.28;100.00;49454.94;5085387;28;20195;-75
2022/09/05 02:07:00;;;;;;;14.30;8.47;;;;;;;-141.28;100.00;49498.09;5072080;28;20207;-77
2022/09/05 02:09:41;;;;;;;11.17;6.60;;;;;;;-141.28;100.00;49454.94;5072666;28;20215;-75
2022/09/05 02:12:23;;;;;;;8.27;6.20;;;;;;;-141.28;100.00;49435.31;5088166;28;20206;-75
2022/09/05 02:14:57;;;;;;;6.37;5.30;;;;;;;-141.28;100.00;49317.56;5091912;28;20662;-75
2022/09/05 02:17:37;;;;;;;7.17;4.50;;;;;;;-141.28;100.00;49394.09;5091693;28;20203;-74
2022/09/05 02:20:14;;;;;;;8.23;5.20;;;;;;;-141.28;100.00;49380.34;5099851;28;20222;-76
2022/09/05 02:22:45;;;;;;;8.53;6.00;;;;;;;-141.28;100.00;49370.53;5093374;28;20191;-76
2022/09/05 02:25:19;;;;;;;7.07;5.73;;;;;;;-141.28;100.00;49427.44;5076039;28;20279;-78
2022/09/05 02:27:52;;;;;;;9.50;5.83;;;;;;;-141.28;100.00;49394.09;5094541;28;20199;-75
2022/09/05 02:30:23;;;;;;;4.93;4.40;;;;;;;-141.28;100.00;49384.28;5091865;28;20202;-76
2022/09/05 02:33:09;;;;;;;4.73;4.10;;;;;;;-141.28;100.00;49458.84;5084468;28;20632;-76
2022/09/05 02:35:45;;;;;;;9.03;5.57;;;;;;;-141.28;100.00;49486.31;5091379;28;20213;-75
2022/09/05 02:38:18;;;;;;;7.27;4.57;;;;;;;-141.28;100.00;49411.75;5073990;28;20196;-75
2022/09/05 02:40:55;;;;;;;9.30;5.67;;;;;;;-141.28;100.00;49427.44;5070874;28;20236;-75
2022/09/05 02:43:32;;;;;;;7.43;4.97;;;;;;;-141.28;100.00;49449.03;5085125;28;20681;-75
2022/09/05 02:46:05;;;;;;;6.40;5.23;;;;;;;-141.28;100.00;49431.38;5089746;28;20203;-76
2022/09/05 02:48:49;;;;;;;8.03;4.40;;;;;;;-141.28;100.00;49443.16;5104030;28;20285;-74
2022/09/05 02:51:20;;;;;;;8.70;4.97;;;;;;;-141.28;100.00;49472.59;5111630;28;20207;-74
2022/09/05 02:53:52;;;;;;;7.07;5.70;;;;;;;-141.28;100.00;49441.19;5095075;28;20203;-76
2022/09/05 02:56:34;;;;;;;11.70;5.50;;;;;;;-141.28;100.00;49396.06;5091404;28;20202;-76
2022/09/05 02:59:13;;;;;;;7.53;4.93;;;;;;;-141.28;100.00;49462.78;5090921;28;20313;-75
2022/09/05 03:02:01;;;;;;;6.53;4.43;;;;;;;-141.28;100.00;49513.78;5097149;28;20597;-77
2022/09/05 03:04:37;;;;;;;5.63;4.33;;;;;;;-141.28;100.00;49468.66;5091421;28;20199;-77
2022/09/05 03:07:16;;;;;;;4.23;3.83;;;;;;;-141.28;100.00;49443.16;5104161;28;20646;-76
2022/09/05 03:10:05;;;;;;;5.23;4.50;;;;;;;-141.28;100.00;49490.25;5102565;28;20210;-75
2022/09/05 03:13:00;;;;;;;5.67;4.53;;;;;;;-141.28;100.00;49584.44;5100285;28;20195;-76
2022/09/05 03:16:11;;;;;;;9.77;6.70;;;;;;;-141.28;100.00;49588.34;5071213;28;20265;-76
2022/09/05 03:19:16;;;;;;;6.20;4.80;;;;;;;-141.28;100.00;49664.91;5096180;28;20187;-76
2022/09/05 03:22:30;;;;;;;5.57;4.40;;;;;;;-141.28;100.00;49596.22;5106190;28;20211;-75
2022/09/05 03:25:43;;;;;;;7.87;4.63;;;;;;;-141.28;100.00;49659.00;5087878;28;20626;-76
2022/09/05 03:28:40;;;;;;;4.80;4.40;;;;;;;-141.28;100.00;49627.59;5089052;28;20678;-77
2022/09/05 03:31:23;;;;;;;6.40;4.00;;;;;;;-141.28;100.00;49564.81;5090636;28;20210;-74
2022/09/05 03:34:32;;;;;;;4.77;4.27;;;;;;;-141.28;100.00;49555.00;5078762;28;20195;-76
2022/09/05 03:37:27;;;;;;;4.90;3.73;;;;;;;-141.28;100.00;49521.63;5063254;28;20275;-75
2022/09/05 03:40:33;;;;;;;4.80;4.30;;;;;;;-141.28;100.00;49572.66;5083340;28;20224;-74
2022/09/05 03:43:32;;;;;;;4.70;4.20;;;;;;;-141.28;100.00;49604.06;5094203;28;20190;-75
2022/09/05 03:46:11;;;;;;;7.60;4.90;;;;;;;-141.28;100.00;49482.41;5043192;28;20273;-75
2022/09/05 03:48:56;;;;;;;9.47;5.43;;;;;;;-141.28;100.00;49380.34;5079934;28;20200;-75
2022/09/05 03:51:36;;;;;;;6.30;4.87;;;;;;;-141.28;100.00;49399.97;5075717;28;20196;-75
2022/09/05 03:54:24;;;;;;;10.63;4.93;;;;;;;-141.28;100.00;49388.22;5075604;28;20196;-76
2022/09/05 03:57:12;;;;;;;8.60;5.03;;;;;;;-141.28;100.00;49447.06;5074504;28;20279;-75
2022/09/05 04:00:09;;;;;;;6.40;5.30;;;;;;;-141.28;100.00;49533.41;5074482;28;20239;-75
2022/09/05 04:02:46;;;;;;;6.10;5.43;;;;;;;-141.28;100.00;49478.47;5089591;28;20203;-77
2022/09/05 04:05:18;;;;;;;6.17;5.33;;;;;;;-141.28;100.00;49433.34;5094281;28;20226;-76
2022/09/05 04:07:50;;;;;;;10.87;5.83;;;;;;;-141.28;100.00;49415.69;5101878;28;20192;-75
2022/09/05 04:10:31;;;;;;;9.97;5.53;;;;;;;-141.28;100.00;49458.84;5074534;28;20223;-75
2022/09/05 04:13:04;;;;;;;7.60;5.40;;;;;;;-141.28;100.00;49443.16;5071829;28;20204;-76
2022/09/05 04:15:39;;;;;;;9.97;5.57;;;;;;;-141.28;100.00;49403.91;5074919;28;20576;-76
2022/09/05 04:18:22;;;;;;;7.90;6.00;;;;;;;-141.28;100.00;49384.28;5074030;28;20208;-75
2022/09/05 04:20:54;;;;;;;9.90;5.97;;;;;;;-141.28;100.00;49376.44;5074540;28;20307;-75
2022/09/05 04:23:29;;;;;;;7.40;6.30;;;;;;;-141.28;100.00;49341.13;5076406;28;20223;-73
2022/09/05 04:26:09;;;;;;;8.20;5.80;;;;;;;-141.28;100.00;49372.50;5094444;28;20225;-76
2022/09/05 04:28:53;;;;;;;9.07;5.93;;;;;;;-141.28;100.00;49396.06;5084953;28;20202;-74
2022/09/05 04:31:32;;;;;;;10.50;6.30;;;;;;;-141.28;100.00;49348.97;5099715;28;20195;-76
2022/09/05 04:34:17;;;;;;;7.03;5.70;;;;;;;-141.28;100.00;49409.78;5102364;28;20198;-75
2022/09/05 04:36:46;;;;;;;9.67;5.40;;;;;;;-141.28;100.00;49447.06;5097589;28;20195;-74
2022/09/05 04:39:27;;;;;;;9.20;6.07;;;;;;;-141.28;100.00;49498.09;5113245;28;20210;-75
2022/09/05 04:42:02;;;;;;;11.40;6.30;;;;;;;-141.28;100.00;49478.47;5086640;28;20223;-76
2022/09/05 04:44:34;;;;;;;10.10;5.93;;;;;;;-141.28;100.00;49452.97;5085325;28;20249;-74
2022/09/05 04:47:09;;;;;;;12.97;7.60;;;;;;;-141.28;100.00;49435.31;5091357;28;20199;-76
2022/09/05 04:49:40;;;;;;;12.20;6.93;;;;;;;-141.28;100.00;49443.16;5081265;28;20196;-76
2022/09/05 04:52:38;;;;;;;8.90;6.27;;;;;;;-141.28;100.00;49568.75;5087214;28;20208;-76
2022/09/05 04:55:10;;;;;;;11.63;6.63;;;;;;;-141.28;100.00;49553.03;5073658;28;20578;-75
2022/09/05 04:57:45;;;;;;;8.00;6.00;;;;;;;-141.28;100.00;49523.59;5085842;28;20196;-76
2022/09/05 05:00:17;;;;;;;13.07;6.00;;;;;;;-141.28;100.00;49517.72;5080607;28;20235;-75
2022/09/05 05:02:53;;;;;;;7.77;6.20;;;;;;;-141.28;100.00;49560.88;5093186;28;20206;-76
2022/09/05 05:05:25;;;;;;;10.80;6.37;;;;;;;-141.28;100.00;49576.59;5093573;28;20587;-75
2022/09/05 05:07:57;;;;;;;8.27;6.50;;;;;;;-141.28;100.00;49592.28;5092962;28;20641;-77
2022/09/05 05:10:42;;;;;;;9.63;6.70;;;;;;;-141.28;100.00;49686.47;5073876;28;20204;-74
2022/09/05 05:13:17;;;;;;;12.60;6.17;;;;;;;-141.28;100.00;49672.75;5074257;28;20196;-74
2022/09/05 05:15:52;;;;;;;7.87;5.93;;;;;;;-141.28;100.00;49790.50;5080886;28;20210;-77
2022/09/05 05:18:35;;;;;;;10.03;5.60;;;;;;;-141.28;100.00;49788.53;5093233;28;20199;-76
2022/09/05 05:21:07;;;;;;;15.60;6.97;;;;;;;-141.28;100.00;49839.56;5092716;28;20227;-77
2022/09/05 05:23:43;;;;;;;11.47;6.43;;;;;;;-141.28;100.00;49812.06;5103342;28;20350;-78
2022/09/05 05:26:20;;;;;;;12.77;6.67;;;;;;;-141.28;100.00;49804.22;5103535;28;20198;-76
2022/09/05 05:28:56;;;;;;;12.00;6.37;;;;;;;-141.28;100.00;49898.44;5104611;28;20195;-75
2022/09/05 05:31:28;;;;;;;12.70;7.00;;;;;;;-141.28;100.00;49872.91;5093215;28;20203;-77
2022/09/05 05:34:03;;;;;;;19.70;6.93;;;;;;;-141.28;100.00;49863.09;5115215;28;20210;-74
2022/09/05 05:36:35;;;;;;;10.43;6.17;;;;;;;-141.28;100.00;49764.97;5097698;28;20265;-75
2022/09/05 05:39:07;;;;;;;11.20;6.40;;;;;;;-141.28;100.00;49851.31;5101806;28;20203;-76
2022/09/05 05:41:41;;;;;;;13.37;6.23;;;;;;;-141.28;100.00;49898.44;5104142;28;20227;-76
2022/09/05 05:44:14;;;;;;;11.03;5.73;;;;;;;-141.28;100.00;50000.47;5092870;28;20589;-76
2022/09/05 05:46:44;;;;;;;7.50;6.53;;;;;;;-141.28;100.00;50029.91;5092584;28;20282;-76
2022/09/05 05:49:44;;;;;;;10.97;6.80;;;;;;;-141.28;100.00;50342.00;5088909;28;20568;-75
2022/09/05 05:52:41;;;;;;;10.77;5.90;;;;;;;-141.28;100.00;50518.66;5085650;28;20207;-75
2022/09/05 05:55:19;;;;;;;9.30;6.80;;;;;;;-141.28;100.00;50508.81;5078533;28;20218;-75
2022/09/05 05:58:01;;;;;;;8.60;5.93;;;;;;;-141.28;100.00;50553.97;5088087;28;20637;-76
2022/09/05 06:00:39;;;;;;;10.87;6.37;;;;;;;-141.28;100.00;50534.34;5091747;28;20236;-76
2022/09/05 06:03:43;;;;;;;11.50;6.93;;;;;;;-141.28;100.00;50773.81;5091677;28;20203;-75
2022/09/05 06:06:23;;;;;;;12.90;7.33;;;;;;;-141.28;100.00;51048.66;5081523;28;20269;-76
2022/09/05 06:09:40;;;;;;;11.77;7.77;;;;;;;-141.28;100.00;51290.16;5080823;28;20199;-76
2022/09/05 06:12:34;;;;;;;11.63;6.30;;;;;;;-141.28;100.00;51370.66;5027823;28;20210;-77
2022/09/05 06:15:29;;;;;;;10.03;6.20;;;;;;;-141.28;100.00;51451.16;5029560;28;20200;-77
2022/09/05 06:18:28;;;;;;;35.00;9.03;;;;;;;-141.28;100.00;51453.09;5087732;28;20195;-74
2022/09/05 06:21:40;;;;;;;11.87;6.80;;;;;;;-141.28;100.00;51457.03;5080516;28;20219;-75
2022/09/05 06:24:46;;;;;;;7.40;5.17;;;;;;;-141.28;100.00;51649.47;5029451;28;20208;-76
2022/09/05 06:27:38;;;;;;;9.57;4.60;;;;;;;-141.28;100.00;51390.28;5100977;28;20192;-75
2022/09/05 06:30:10;;;;;;;9.70;5.17;;;;;;;-141.28;100.00;51235.19;5071632;28;20568;-75
2022/09/05 06:32:57;;;;;;;8.57;4.57;;;;;;;-141.28;100.00;51197.88;5087214;28;20674;-76
2022/09/05 06:35:37;;;;;;;9.57;5.30;;;;;;;-141.28;100.00;51317.63;5111819;28;20727;-75
2022/09/05 06:38:20;;;;;;;9.00;4.70;;;;;;;-141.28;100.00;51099.72;5073853;28;20200;-75
2022/09/05 06:41:04;;;;;;;6.40;5.10;;;;;;;-141.28;100.00;51015.28;5072125;28;20398;-77
2022/09/05 06:44:02;;;;;;;9.20;5.00;;;;;;;-141.28;100.00;51040.81;5072273;28;20219;-76
2022/09/05 06:46:34;;;;;;;10.30;5.27;;;;;;;-141.28;100.00;51013.31;5071954;28;20196;-77
2022/09/05 06:49:18;;;;;;;6.37;5.43;;;;;;;-141.28;100.00;51005.47;5087409;28;20222;-77
2022/09/05 06:52:00;;;;;;;8.23;5.27;;;;;;;-141.28;100.00;50891.63;5095100;28;20199;-74
2022/09/05 06:54:52;;;;;;;5.07;4.47;;;;;;;-141.28;100.00;50970.13;5101573;28;20215;-77
2022/09/05 06:57:58;;;;;;;7.97;4.87;;;;;;;-141.28;100.00;51003.50;5097554;28;20264;-76
2022/09/05 07:00:36;;;;;;;11.63;5.40;;;;;;;-141.28;100.00;51009.41;5092645;28;20235;-76
2022/09/05 07:03:25;;;;;;;5.87;4.93;;;;;;;-141.28;100.00;50989.78;5104447;28;20194;-75
2022/09/05 07:05:56;;;;;;;6.87;5.30;;;;;;;-141.28;100.00;50974.06;5081060;28;20200;-76
2022/09/05 07:08:31;;;;;;;8.47;4.47;;;;;;;-141.28;100.00;50974.06;5103813;28;20204;-76
2022/09/05 07:11:03;;;;;;;4.80;4.27;;;;;;;-141.28;100.00;51091.84;5090825;28;20753;-75
2022/09/05 07:13:36;;;;;;;4.93;3.97;;;;;;;-141.28;100.00;51205.72;5109036;28;20194;-74
2022/09/05 07:16:15;;;;;;;5.90;4.00;;;;;;;-141.28;100.00;51351.00;5096553;28;20669;-77
2022/09/05 07:18:52;;;;;;;7.17;4.83;;;;;;;-141.28;100.00;51460.97;5089926;28;20191;-75
2022/09/05 07:21:27;;;;;;;4.47;4.00;;;;;;;-141.28;100.00;51690.69;5098810;28;20241;-76
2022/09/05 07:24:01;;;;;;;5.33;3.53;;;;;;;-141.28;100.00;51832.06;5114906;28;20282;-75
2022/09/05 07:26:32;;;;;;;4.37;3.20;;;;;;;-141.28;100.00;51828.16;5097066;28;20661;-76
2022/09/05 07:29:06;;;;;;;4.33;3.10;;;;;;;-141.28;100.00;51932.22;5082009;28;20202;-74
2022/09/05 07:31:36;;;;;;;3.50;3.20;;;;;;;-141.28;100.00;52038.25;5106666;28;20275;-76
2022/09/05 07:34:10;;;;;;;3.27;2.97;;;;;;;-141.28;100.00;51983.28;5074773;28;20665;-75
2022/09/05 07:36:42;;;;;;;6.27;3.50;;;;;;;-141.28;100.00;51971.50;5105499;28;20191;-75
2022/09/05 07:39:12;;;;;;;3.67;3.37;;;;;;;-141.28;100.00;51912.59;5105192;28;20226;-74
2022/09/05 07:41:44;;;;;;;3.80;3.40;;;;;;;-141.28;100.00;51940.06;5109764;28;20667;-77
2022/09/05 07:44:20;;;;;;;4.67;3.10;;;;;;;-141.28;100.00;51944.00;5082555;28;20193;-75
2022/09/05 07:46:53;;;;;;;3.77;2.83;;;;;;;-141.28;100.00;51940.06;5088743;28;20195;-77
2022/09/05 07:49:24;;;;;;;4.60;3.00;;;;;;;-141.28;100.00;51959.72;5087593;28;20220;-77
2022/09/05 07:51:55;;;;;;;4.97;3.57;;;;;;;-141.28;100.00;51924.38;5114383;28;20194;-77
2022/09/05 07:54:26;;;;;;;6.53;3.50;;;;;;;-141.28;100.00;51885.09;5068984;28;20227;-75
2022/09/05 07:56:58;;;;;;;6.50;3.27;;;;;;;-141.28;100.00;51959.72;5104530;28;20245;-75
2022/09/05 07:59:28;;;;;;;5.73;3.17;;;;;;;-141.28;100.00;51945.97;5078958;28;20200;-74
2022/09/05 08:01:57;;;;;;;4.03;3.13;;;;;;;-141.28;100.00;52026.47;5076075;28;20301;-75
2022/09/05 08:04:28;;;;;;;5.83;3.50;;;;;;;-141.28;100.00;52165.91;5111318;28;20191;-75
2022/09/05 08:06:59;;;;;;;3.17;2.87;;;;;;;-141.28;100.00;52120.75;5098785;28;20200;-76
2022/09/05 08:09:33;;;;;;;4.80;2.70;;;;;;;-141.28;100.00;52061.81;5079712;28;20200;-77
2022/09/05 08:12:06;;;;;;;3.10;2.80;;;;;;;-141.28;100.00;52022.56;5083563;28;20224;-77
2022/09/05 08:14:58;;;;;;;3.70;3.23;;;;;;;-141.28;100.00;52004.88;5110934;28;20222;-75
2022/09/05 08:17:27;;;;;;;3.57;3.27;;;;;;;-141.28;100.00;51924.38;5113039;28;20206;-76
2022/09/05 08:20:09;;;;;;;3.37;2.70;;;;;;;-141.28;100.00;51953.81;5081417;28;20199;-76
2022/09/05 08:22:46;;;;;;;3.63;2.30;;;;;;;-141.28;100.00;51828.16;5086984;28;20610;-75
2022/09/05 08:25:18;;;;;;;4.80;3.20;;;;;;;-141.28;100.00;51680.88;5089164;28;20635;-75
2022/09/05 08:28:01;;;;;;;2.87;2.57;;;;;;;-141.28;100.00;51651.41;5103110;28;20609;-75
2022/09/05 08:30:32;;;;;;;6.10;2.70;;;;;;;-141.28;100.00;51441.31;5099233;28;20190;-77
2022/09/05 08:33:04;;;;;;;3.23;2.90;;;;;;;-141.28;100.00;51437.41;5096031;28;20208;-75
2022/09/05 08:35:39;;;;;;;6.47;3.23;;;;;;;-141.28;100.00;51219.47;5108085;28;20682;-76
2022/09/05 08:38:09;;;;;;;3.63;3.03;;;;;;;-141.28;100.00;51262.66;5093692;28;20209;-75
2022/09/05 08:40:42;;;;;;;6.50;2.90;;;;;;;-141.28;100.00;51201.81;5086510;28;20200;-74
2022/09/05 08:43:17;;;;;;;4.67;2.77;;;;;;;-141.28;100.00;51288.19;5075450;28;20231;-76
2022/09/05 08:45:54;;;;;;;4.23;2.77;;;;;;;-141.28;100.00;51190.03;5093839;28;20209;-76
2022/09/05 08:48:32;;;;;;;3.07;2.50;;;;;;;-141.28;100.00;51062.41;5075472;28;20692;-74
2022/09/05 08:51:15;;;;;;;3.00;2.70;;;;;;;-141.28;100.00;50891.63;5073242;28;20192;-77
2022/09/05 08:54:05;;;;;;;2.73;2.53;;;;;;;-141.28;100.00;50793.47;5082532;28;20188;-75
2022/09/05 08:56:39;;;;;;;3.00;2.50;;;;;;;-141.28;100.00;50675.69;5075753;28;20206;-76
2022/09/05 08:59:20;;;;;;;4.87;2.70;;;;;;;-141.28;100.00;50449.94;5093233;28;20602;-75
2022/09/05 09:02:18;;;;;;;2.57;2.37;;;;;;;-141.28;100.00;50243.84;5090139;28;20597;-81
2022/09/05 09:05:08;;;;;;;3.37;2.80;;;;;;;-141.28;100.00;50196.75;5112709;28;20195;-78
2022/09/05 09:07:42;;;;;;;3.50;2.63;;;;;;;-141.28;100.00;50086.84;5096244;28;21866;-76
2022/09/05 09:10:30;;;;;;;5.57;3.17;;;;;;;-141.28;100.00;50082.91;5085345;28;20315;-77
2022/09/05 09:13:08;;;;;;;4.83;2.70;;;;;;;-141.28;100.00;50202.63;5094826;28;20234;-75
2022/09/05 09:15:39;;;;;;;3.23;2.73;;;;;;;-141.28;100.00;50106.47;5098593;28;20244;-77
2022/09/05 09:18:15;;;;;;;4.90;2.90;;;;;;;-141.28;100.00;50108.44;5095366;28;20235;-75
2022/09/05 09:21:00;;;;;;;3.93;2.73;;;;;;;-141.28;100.00;50098.63;5076435;28;20192;-75
2022/09/05 09:23:50;;;;;;;3.53;2.90;;;;;;;-141.28;100.00;50310.59;5098781;28;20303;-76
2022/09/05 09:26:21;;;;;;;4.63;3.37;;;;;;;-141.28;100.00;50347.88;5092292;28;20654;-75
2022/09/05 09:28:53;;;;;;;3.93;2.70;;;;;;;-141.28;100.00;50114.31;5072717;28;20196;-74
2022/09/05 09:31:35;;;;;;;4.27;3.17;;;;;;;-141.28;100.00;50086.84;5086600;28;20222;-76
2022/09/05 09:34:32;;;;;;;3.20;2.90;;;;;;;-141.28;100.00;50063.28;5072521;28;20221;-75
2022/09/05 09:37:31;;;;;;;8.27;2.97;;;;;;;-141.28;100.00;50059.34;5086668;28;20299;-78
2022/09/05 09:40:25;;;;;;;4.73;3.23;;;;;;;-141.28;100.00;50232.06;5110840;28;20194;-77
2022/09/05 09:43:00;;;;;;;3.20;2.90;;;;;;;-141.28;100.00;50216.38;5098314;28;20230;-74
2022/09/05 09:45:51;;;;;;;4.63;2.70;;;;;;;-141.28;100.00;50106.47;5112976;28;20194;-76
2022/09/05 09:48:54;;;;;;;3.00;2.70;;;;;;;-141.28;100.00;49812.06;5079481;28;20203;-75
2022/09/05 09:51:40;;;;;;;2.90;2.50;;;;;;;-141.28;100.00;50090.75;5092115;28;20248;-75
2022/09/05 09:54:48;;;;;;;9.67;3.20;;;;;;;-141.28;100.00;49688.44;5098361;28;20625;-78
2022/09/05 09:57:56;;;;;;;3.00;2.80;;;;;;;-141.28;100.00;49462.78;5076432;28;20285;-78
2022/09/05 10:00:30;;;;;;;4.87;2.97;;;;;;;-141.28;100.00;49690.41;5115381;28;20234;-75
2022/09/05 10:03:25;;;;;;;3.40;2.57;;;;;;;-141.28;100.00;49941.59;5079750;28;20223;-75
2022/09/05 10:06:34;;;;;;;3.40;2.77;;;;;;;-141.28;100.00;50012.25;5083212;28;20628;-77
2022/09/05 10:09:25;;;;;;;3.53;2.53;;;;;;;-141.28;100.00;49965.16;5076841;28;20195;-77
2022/09/05 10:12:32;;;;;;;3.17;2.73;;;;;;;-141.28;100.00;49749.28;5092195;28;20234;-75
2022/09/05 10:15:12;;;;;;;3.60;2.70;;;;;;;-141.28;100.00;49423.53;5062805;28;20203;-75
2022/09/05 10:17:51;;;;;;;3.10;2.80;;;;;;;-141.28;100.00;49439.22;5085422;28;20196;-77
2022/09/05 10:21:01;;;;;;;3.67;2.77;;;;;;;-141.28;100.00;49140.97;5100619;28;20230;-75
2022/09/05 10:23:51;;;;;;;2.60;2.40;;;;;;;-141.28;100.00;49119.38;5018556;28;20272;-76
2022/09/05 10:26:57;;;;;;;4.27;2.50;;;;;;;-141.28;100.00;49372.50;5089358;28;20210;-75
2022/09/05 10:30:06;;;;;;;3.13;2.60;;;;;;;-141.28;100.00;49617.78;5082485;28;20203;-76
2022/09/05 10:32:42;;;;;;;5.37;3.00;;;;;;;-141.28;100.00;49851.31;5081877;28;20240;-75
2022/09/05 10:35:23;;;;;;;3.07;2.77;;;;;;;-141.28;100.00;49847.41;5108547;28;20202;-76
2022/09/05 10:38:01;;;;;;;2.60;2.40;;;;;;;-141.28;100.00;49464.72;5097302;28;20219;-76
2022/09/05 10:40:32;;;;;;;3.20;2.53;;;;;;;-141.28;100.00;49172.38;5088028;28;20281;-75
2022/09/05 10:43:12;;;;;;;2.73;2.27;;;;;;;-141.28;100.00;48936.91;5109714;28;20220;-74
2022/09/05 10:45:47;;;;;;;2.53;2.33;;;;;;;-141.28;100.00;48882.00;5110962;28;20512;-76
2022/09/05 10:48:23;;;;;;;4.83;2.83;;;;;;;-141.28;100.00;48897.69;5111008;28;20201;-75
2022/09/05 10:51:00;;;;;;;2.67;2.47;;;;;;;-141.28;100.00;48866.28;5097249;28;20268;-75
2022/09/05 10:53:37;;;;;;;3.73;2.97;;;;;;;-141.28;100.00;48925.16;5113379;28;20316;-76
2022/09/05 10:56:12;;;;;;;5.70;2.67;;;;;;;-141.28;100.00;48921.22;5098348;28;20196;-76
2022/09/05 10:59:03;;;;;;;2.83;2.40;;;;;;;-141.28;100.00;48976.16;5089142;28;20236;-76
2022/09/05 11:01:38;;;;;;;6.63;2.83;;;;;;;-141.28;100.00;48874.13;5089768;28;20237;-76
2022/09/05 11:04:15;;;;;;;3.20;2.90;;;;;;;-141.28;100.00;48991.84;5105994;28;20225;-74
2022/09/05 11:06:57;;;;;;;4.43;2.70;;;;;;;-141.28;100.00;48995.78;5099272;28;20198;-76
2022/09/05 11:09:49;;;;;;;3.73;2.80;;;;;;;-141.28;100.00;48999.72;5090896;28;20222;-76
2022/09/05 11:12:32;;;;;;;5.93;2.50;;;;;;;-141.28;100.00;49007.56;5074785;28;20204;-77
2022/09/05 11:15:04;;;;;;;3.40;3.10;;;;;;;-141.28;100.00;48968.31;5090742;28;20195;-76
2022/09/05 11:17:42;;;;;;;4.40;2.60;;;;;;;-141.28;100.00;48866.28;5087363;28;20207;-76
2022/09/05 11:20:33;;;;;;;2.90;2.70;;;;;;;-141.28;100.00;48834.91;5089898;28;20245;-74
2022/09/05 11:23:04;;;;;;;4.00;2.60;;;;;;;-141.28;100.00;48854.53;5075020;28;20212;-77
2022/09/05 11:25:35;;;;;;;4.47;2.47;;;;;;;-141.28;100.00;48882.00;5086338;28;20722;-76
2022/09/05 11:28:11;;;;;;;3.20;2.90;;;;;;;-141.28;100.00;48895.72;5095366;28;20200;-75
2022/09/05 11:30:46;;;;;;;4.20;2.60;;;;;;;-141.28;100.00;48897.69;5101975;28;20199;-76
2022/09/05 11:33:31;;;;;;;3.93;2.50;;;;;;;-141.28;100.00;48860.41;5114178;28;20206;-77
2022/09/05 11:36:02;;;;;;;6.03;2.70;;;;;;;-141.28;100.00;48901.59;5103339;28;20663;-76
2022/09/05 11:39:20;;;;;;;4.40;2.63;;;;;;;-141.28;100.00;48913.38;5099735;28;20219;-77
2022/09/05 11:42:21;;;;;;;4.27;2.80;;;;;;;-141.28;100.00;48882.00;5094208;28;20364;-76
2022/09/05 11:45:20;;;;;;;4.40;2.87;;;;;;;-141.28;100.00;48876.09;5087443;28;20210;-76
2022/09/05 11:48:31;;;;;;;7.80;2.57;;;;;;;-141.28;100.00;48854.53;5094025;28;20191;-77
2022/09/05 11:51:46;;;;;;;3.27;2.50;;;;;;;-141.28;100.00;48830.97;5073699;28;20619;-76
2022/09/05 11:54:42;;;;;;;6.17;2.60;;;;;;;-141.28;100.00;48823.13;5074120;28;20212;-75
2022/09/05 11:57:32;;;;;;;2.87;2.60;;;;;;;-141.28;100.00;48819.22;5081893;28;20199;-76
2022/09/05 12:00:11;;;;;;;5.13;2.57;;;;;;;-141.28;100.00;49042.88;5092926;28;20228;-76
2022/09/05 12:03:04;;;;;;;2.87;2.67;;;;;;;-141.28;100.00;48885.91;5097398;28;20264;-75
2022/09/05 12:05:51;;;;;;;2.80;2.23;;;;;;;-141.28;100.00;48827.06;5111080;28;20194;-77
2022/09/05 12:08:30;;;;;;;3.33;3.03;;;;;;;-141.28;100.00;48936.91;5083284;28;20192;-77
2022/09/05 12:11:09;;;;;;;3.87;2.47;;;;;;;-141.28;100.00;48929.06;5074889;28;20197;-74
2022/09/05 12:13:45;;;;;;;6.27;3.13;;;;;;;-141.28;100.00;48913.38;5076496;28;20211;-75